Mentoras — SVA4822 — position and weather

sailwx.info

Track history (hours):
 
Tides and Currents Weather Stations Pressure Air Temp Water Temp Dewpoint Dewpoint Depression Visibility Wind Speed Wind Dir Waves Ship Positions

Mentoras

Last reported at 2013-Nov-29 16:09 UTC. Time now 2014-Jul-23 16:23 UTC.
Position N 37°36' E 023°39'.
Warning: this ship's position is months out of date.

Length 30 m.

Type: Ship. MMSI: 239651400.

Date/timePositionNaut miles runAvg speedWind from/ knotsBaromVisibWave heightAir tempDewpointWater temp
2013-Nov-29 16:09N 37°36' E 023°39'6 9.6
2013-Nov-29 15:33N 37°41' E 023°38'10 9.7
2013-Nov-29 14:33N 37°51' E 023°35'6 6.4
2013-Nov-29 13:33N 37°57' E 023°34'1 0.6
2013-Nov-29 12:33N 37°58' E 023°34'0 0.0
2013-Nov-29 11:30N 37°58' E 023°34'0 0.0
2013-Nov-29 10:30N 37°58' E 023°34'1 0.7
2013-Nov-29 09:32N 37°57' E 023°34'7 6.6
2013-Nov-29 08:33N 37°51' E 023°36'5 4.6
2013-Nov-29 07:32N 37°46' E 023°36'3 3.1
2013-Nov-29 06:33N 37°43' E 023°37'  
Track history (hours):
 
Tides and Currents Weather Stations Pressure Air Temp Water Temp Dewpoint Dewpoint Depression Visibility Wind Speed Wind Dir Waves Ship Positions

Mentoras

Last reported at 2013-Nov-29 16:09 UTC. Time now 2014-Jul-23 16:23 UTC.
Position N 37°36' E 023°39'.
Warning: this ship's position is months out of date.

Length 30 m.

Type: Ship. MMSI: 239651400.

Date/timePositionNaut miles runAvg speedWind from/ knotsBaromVisibWave heightAir tempDewpointWater temp
2013-Nov-29 16:09N 37°36' E 023°39'6 9.6
2013-Nov-29 15:33N 37°41' E 023°38'10 9.7
2013-Nov-29 14:33N 37°51' E 023°35'6 6.4
2013-Nov-29 13:33N 37°57' E 023°34'1 0.6
2013-Nov-29 12:33N 37°58' E 023°34'0 0.0
2013-Nov-29 11:30N 37°58' E 023°34'0 0.0
2013-Nov-29 10:30N 37°58' E 023°34'1 0.7
2013-Nov-29 09:32N 37°57' E 023°34'7 6.6
2013-Nov-29 08:33N 37°51' E 023°36'5 4.6
2013-Nov-29 07:32N 37°46' E 023°36'3 3.1
2013-Nov-29 06:33N 37°43' E 023°37'  

Dump ship's entire track history